Custer City, Oklahoma
Current Conditions -  °F | °C
As of 8:15 PM on Wednesday 17 Dec 2014 (Local Time) from KCLK Reporting Station
Haze Haze  
Wind Chill: 30°   Ceiling: 600
Heat Index: 36°   Visibility: 3mi
Dew Point: 34°   Wind: 7mph
Humidity: 93%   Direction: 110°ESE
Pressure: 30.11"   Gusts: NA
Location:  35.67°N, 98.88°W
Report Text: KCLK 180215Z AUTO 11006KT 3SM BR OVC006 02/01 A3011 RMK AO2
Loading
Personal Weather Stations






























Interactive Weather Map New forecast layout! Learn more

10-Day Weather Forecast

Advertisements
Track Severe Weather on mobile